sensor_id;sensor_type;location;lat;lon;timestamp;pressure;altitude;pressure_sealevel;temperature;humidity
9784;BME280;4931;44.874;-1.092;2023-04-15T00:02:17;101374.88;;;11.34;100.00
9784;BME280;4931;44.874;-1.092;2023-04-15T00:04:44;101386.16;;;11.33;100.00
9784;BME280;4931;44.874;-1.092;2023-04-15T00:07:10;101383.69;;;11.31;100.00
9784;BME280;4931;44.874;-1.092;2023-04-15T00:09:35;101399.31;;;11.20;100.00
9784;BME280;4931;44.874;-1.092;2023-04-15T00:12:01;101413.78;;;11.10;100.00
9784;BME280;4931;44.874;-1.092;2023-04-15T00:14:26;101447.56;;;11.06;100.00
9784;BME280;4931;44.874;-1.092;2023-04-15T00:16:52;101468.69;;;11.05;100.00
9784;BME280;4931;44.874;-1.092;2023-04-15T00:19:20;101513.72;;;11.09;100.00
9784;BME280;4931;44.874;-1.092;2023-04-15T00:21:46;101529.22;;;11.26;100.00
9784;BME280;4931;44.874;-1.092;2023-04-15T00:24:11;101527.53;;;11.20;100.00
9784;BME280;4931;44.874;-1.092;2023-04-15T00:26:38;101532.47;;;11.18;100.00
9784;BME280;4931;44.874;-1.092;2023-04-15T00:29:03;101540.75;;;11.23;100.00
9784;BME280;4931;44.874;-1.092;2023-04-15T00:31:30;101548.94;;;11.18;100.00
9784;BME280;4931;44.874;-1.092;2023-04-15T00:33:55;101548.94;;;11.18;100.00
9784;BME280;4931;44.874;-1.092;2023-04-15T00:36:21;101557.50;;;11.26;100.00
9784;BME280;4931;44.874;-1.092;2023-04-15T00:38:47;101564.00;;;11.10;100.00
9784;BME280;4931;44.874;-1.092;2023-04-15T00:41:13;101551.38;;;11.14;100.00
9784;BME280;4931;44.874;-1.092;2023-04-15T00:43:38;101540.94;;;11.16;100.00
9784;BME280;4931;44.874;-1.092;2023-04-15T00:46:05;101514.84;;;11.13;100.00
9784;BME280;4931;44.874;-1.092;2023-04-15T00:48:31;101511.00;;;11.15;100.00
9784;BME280;4931;44.874;-1.092;2023-04-15T00:50:56;101504.38;;;11.05;100.00
9784;BME280;4931;44.874;-1.092;2023-04-15T00:53:22;101506.00;;;11.01;100.00
9784;BME280;4931;44.874;-1.092;2023-04-15T00:55:48;101501.31;;;11.02;100.00
9784;BME280;4931;44.874;-1.092;2023-04-15T00:58:14;101501.91;;;11.04;100.00
9784;BME280;4931;44.874;-1.092;2023-04-15T01:00:41;101508.78;;;11.06;100.00
9784;BME280;4931;44.874;-1.092;2023-04-15T01:03:07;101512.28;;;11.02;100.00
9784;BME280;4931;44.874;-1.092;2023-04-15T01:05:33;101500.50;;;11.01;100.00
9784;BME280;4931;44.874;-1.092;2023-04-15T01:07:59;101486.25;;;11.09;100.00
9784;BME280;4931;44.874;-1.092;2023-04-15T01:10:24;101472.50;;;11.04;100.00
9784;BME280;4931;44.874;-1.092;2023-04-15T01:12:50;101476.06;;;11.00;100.00
9784;BME280;4931;44.874;-1.092;2023-04-15T01:15:16;101470.31;;;11.01;100.00
9784;BME280;4931;44.874;-1.092;2023-04-15T01:17:42;101466.19;;;11.04;100.00
9784;BME280;4931;44.874;-1.092;2023-04-15T01:20:08;101475.22;;;10.99;100.00
9784;BME280;4931;44.874;-1.092;2023-04-15T01:22:36;101480.75;;;11.04;100.00
9784;BME280;4931;44.874;-1.092;2023-04-15T01:25:09;101473.91;;;11.07;100.00
9784;BME280;4931;44.874;-1.092;2023-04-15T01:27:38;101470.34;;;11.06;100.00
9784;BME280;4931;44.874;-1.092;2023-04-15T01:30:06;101478.31;;;11.08;100.00
9784;BME280;4931;44.874;-1.092;2023-04-15T01:32:32;101480.78;;;11.09;100.00
9784;BME280;4931;44.874;-1.092;2023-04-15T01:34:58;101492.31;;;11.06;100.00
9784;BME280;4931;44.874;-1.092;2023-04-15T01:37:23;101491.19;;;11.02;100.00
9784;BME280;4931;44.874;-1.092;2023-04-15T01:39:49;101482.31;;;10.90;100.00
9784;BME280;4931;44.874;-1.092;2023-04-15T01:42:15;101482.88;;;10.92;100.00
9784;BME280;4931;44.874;-1.092;2023-04-15T01:44:41;101477.66;;;10.90;100.00
9784;BME280;4931;44.874;-1.092;2023-04-15T01:47:06;101486.66;;;10.86;100.00
9784;BME280;4931;44.874;-1.092;2023-04-15T01:49:33;101493.28;;;10.90;100.00
9784;BME280;4931;44.874;-1.092;2023-04-15T01:51:58;101478.69;;;10.84;100.00
9784;BME280;4931;44.874;-1.092;2023-04-15T01:54:25;101478.47;;;10.91;100.00
9784;BME280;4931;44.874;-1.092;2023-04-15T01:56:51;101459.16;;;10.75;100.00
9784;BME280;4931;44.874;-1.092;2023-04-15T01:59:17;101439.41;;;10.73;100.00
9784;BME280;4931;44.874;-1.092;2023-04-15T02:01:43;101439.94;;;10.75;100.00
9784;BME280;4931;44.874;-1.092;2023-04-15T02:04:09;101440.44;;;10.67;100.00
9784;BME280;4931;44.874;-1.092;2023-04-15T02:06:42;101433.91;;;10.73;100.00
9784;BME280;4931;44.874;-1.092;2023-04-15T02:09:08;101429.00;;;10.80;100.00
9784;BME280;4931;44.874;-1.092;2023-04-15T02:11:34;101416.91;;;10.76;100.00
9784;BME280;4931;44.874;-1.092;2023-04-15T02:14:01;101409.25;;;10.78;100.00
9784;BME280;4931;44.874;-1.092;2023-04-15T02:16:26;101412.22;;;10.72;100.00
9784;BME280;4931;44.874;-1.092;2023-04-15T02:18:52;101412.97;;;10.62;100.00
9784;BME280;4931;44.874;-1.092;2023-04-15T02:21:17;101414.34;;;10.65;100.00
9784;BME280;4931;44.874;-1.092;2023-04-15T02:23:43;101409.19;;;10.68;100.00
9784;BME280;4931;44.874;-1.092;2023-04-15T02:26:09;101402.34;;;10.71;100.00
9784;BME280;4931;44.874;-1.092;2023-04-15T02:28:35;101403.69;;;10.68;100.00
9784;BME280;4931;44.874;-1.092;2023-04-15T02:31:04;101404.75;;;10.62;100.00
9784;BME280;4931;44.874;-1.092;2023-04-15T02:33:30;101409.19;;;10.68;100.00
9784;BME280;4931;44.874;-1.092;2023-04-15T02:35:56;101403.41;;;10.70;100.00
9784;BME280;4931;44.874;-1.092;2023-04-15T02:38:22;101389.63;;;10.59;100.00
9784;BME280;4931;44.874;-1.092;2023-04-15T02:40:47;101396.50;;;10.62;100.00
9784;BME280;4931;44.874;-1.092;2023-04-15T02:43:14;101401.47;;;10.65;100.00
9784;BME280;4931;44.874;-1.092;2023-04-15T02:45:41;101401.53;;;10.75;100.00
9784;BME280;4931;44.874;-1.092;2023-04-15T02:48:08;101391.06;;;10.67;100.00
9784;BME280;4931;44.874;-1.092;2023-04-15T02:50:33;101385.03;;;10.65;100.00
9784;BME280;4931;44.874;-1.092;2023-04-15T02:52:59;101397.91;;;10.65;100.00
9784;BME280;4931;44.874;-1.092;2023-04-15T02:55:29;101395.34;;;10.53;100.00
9784;BME280;4931;44.874;-1.092;2023-04-15T02:57:55;101401.06;;;10.46;100.00
9784;BME280;4931;44.874;-1.092;2023-04-15T03:00:22;101395.97;;;10.60;100.00
9784;BME280;4931;44.874;-1.092;2023-04-15T03:02:49;101406.97;;;10.70;100.00
9784;BME280;4931;44.874;-1.092;2023-04-15T03:05:20;101392.06;;;10.51;100.00
9784;BME280;4931;44.874;-1.092;2023-04-15T03:07:49;101391.78;;;10.52;100.00
9784;BME280;4931;44.874;-1.092;2023-04-15T03:10:14;101394.47;;;10.42;100.00
9784;BME280;4931;44.874;-1.092;2023-04-15T03:12:40;101398.59;;;10.44;100.00
9784;BME280;4931;44.874;-1.092;2023-04-15T03:15:07;101398.38;;;10.51;100.00
9784;BME280;4931;44.874;-1.092;2023-04-15T03:17:33;101399.72;;;10.49;100.00
9784;BME280;4931;44.874;-1.092;2023-04-15T03:19:59;101409.03;;;10.48;100.00
9784;BME280;4931;44.874;-1.092;2023-04-15T03:22:25;101408.25;;;10.52;100.00
9784;BME280;4931;44.874;-1.092;2023-04-15T03:24:50;101409.59;;;10.50;100.00
9784;BME280;4931;44.874;-1.092;2023-04-15T03:27:16;101412.84;;;10.46;100.00
9784;BME280;4931;44.874;-1.092;2023-04-15T03:29:41;101414.50;;;10.48;100.00
9784;BME280;4931;44.874;-1.092;2023-04-15T03:32:07;101413.69;;;10.47;100.00
9784;BME280;4931;44.874;-1.092;2023-04-15T03:34:32;101411.63;;;10.32;100.00
9784;BME280;4931;44.874;-1.092;2023-04-15T03:36:58;101404.50;;;10.31;100.00
9784;BME280;4931;44.874;-1.092;2023-04-15T03:39:23;101419.09;;;10.37;100.00
9784;BME280;4931;44.874;-1.092;2023-04-15T03:41:49;101419.84;;;10.32;100.00
9784;BME280;4931;44.874;-1.092;2023-04-15T03:44:14;101424.91;;;10.40;100.00
9784;BME280;4931;44.874;-1.092;2023-04-15T03:46:40;101417.59;;;10.24;100.00
9784;BME280;4931;44.874;-1.092;2023-04-15T03:49:06;101425.88;;;10.29;100.00
9784;BME280;4931;44.874;-1.092;2023-04-15T03:51:32;101430.25;;;10.30;100.00
9784;BME280;4931;44.874;-1.092;2023-04-15T03:53:57;101425.22;;;10.17;100.00
9784;BME280;4931;44.874;-1.092;2023-04-15T03:56:23;101427.25;;;10.32;100.00
9784;BME280;4931;44.874;-1.092;2023-04-15T03:58:49;101428.00;;;10.22;100.00
9784;BME280;4931;44.874;-1.092;2023-04-15T04:01:14;101441.09;;;10.14;100.00
9784;BME280;4931;44.874;-1.092;2023-04-15T04:03:40;101441.63;;;10.11;100.00
9784;BME280;4931;44.874;-1.092;2023-04-15T04:06:06;101447.06;;;10.06;100.00
9784;BME280;4931;44.874;-1.092;2023-04-15T04:08:32;101438.25;;;10.04;100.00
9784;BME280;4931;44.874;-1.092;2023-04-15T04:10:58;101445.28;;;9.95;100.00
9784;BME280;4931;44.874;-1.092;2023-04-15T04:13:23;101438.72;;;9.96;100.00
9784;BME280;4931;44.874;-1.092;2023-04-15T04:15:49;101449.31;;;9.87;100.00
9784;BME280;4931;44.874;-1.092;2023-04-15T04:18:14;101447.59;;;9.76;100.00
9784;BME280;4931;44.874;-1.092;2023-04-15T04:20:40;101449.03;;;9.84;100.00
9784;BME280;4931;44.874;-1.092;2023-04-15T04:23:06;101454.50;;;9.84;100.00
9784;BME280;4931;44.874;-1.092;2023-04-15T04:25:31;101462.16;;;9.82;100.00
9784;BME280;4931;44.874;-1.092;2023-04-15T04:27:57;101463.16;;;9.75;100.00
9784;BME280;4931;44.874;-1.092;2023-04-15T04:30:23;101465.97;;;9.80;100.00
9784;BME280;4931;44.874;-1.092;2023-04-15T04:32:49;101467.00;;;9.74;100.00
9784;BME280;4931;44.874;-1.092;2023-04-15T04:35:15;101474.00;;;9.65;100.00
9784;BME280;4931;44.874;-1.092;2023-04-15T04:37:40;101482.50;;;9.63;100.00
9784;BME280;4931;44.874;-1.092;2023-04-15T04:40:06;101485.56;;;9.67;100.00
9784;BME280;4931;44.874;-1.092;2023-04-15T04:42:32;101491.03;;;9.67;100.00
9784;BME280;4931;44.874;-1.092;2023-04-15T04:44:57;101495.31;;;9.58;100.00
9784;BME280;4931;44.874;-1.092;2023-04-15T04:47:23;101493.25;;;9.70;100.00
9784;BME280;4931;44.874;-1.092;2023-04-15T04:49:48;101500.00;;;9.62;100.00
9784;BME280;4931;44.874;-1.092;2023-04-15T04:52:14;101508.75;;;9.59;100.00
9784;BME280;4931;44.874;-1.092;2023-04-15T04:54:39;101513.41;;;9.59;100.00
9784;BME280;4931;44.874;-1.092;2023-04-15T04:57:05;101519.31;;;9.51;100.00
9784;BME280;4931;44.874;-1.092;2023-04-15T04:59:32;101530.25;;;9.51;100.00
9784;BME280;4931;44.874;-1.092;2023-04-15T05:01:57;101521.75;;;9.47;100.00
9784;BME280;4931;44.874;-1.092;2023-04-15T05:04:23;101519.50;;;9.44;100.00
9784;BME280;4931;44.874;-1.092;2023-04-15T05:06:48;101527.25;;;9.30;100.00
9784;BME280;4931;44.874;-1.092;2023-04-15T05:09:14;101522.09;;;9.34;100.00
9784;BME280;4931;44.874;-1.092;2023-04-15T05:11:39;101535.56;;;9.35;100.00
9784;BME280;4931;44.874;-1.092;2023-04-15T05:14:05;101530.00;;;9.30;100.00
9784;BME280;4931;44.874;-1.092;2023-04-15T05:16:31;101534.75;;;9.18;100.00
9784;BME280;4931;44.874;-1.092;2023-04-15T05:18:56;101540.22;;;9.18;100.00
9784;BME280;4931;44.874;-1.092;2023-04-15T05:21:22;101544.50;;;9.30;100.00
9784;BME280;4931;44.874;-1.092;2023-04-15T05:23:47;101553.53;;;9.31;100.00
9784;BME280;4931;44.874;-1.092;2023-04-15T05:26:13;101550.31;;;9.34;100.00
9784;BME280;4931;44.874;-1.092;2023-04-15T05:28:38;101553.63;;;9.36;100.00
9784;BME280;4931;44.874;-1.092;2023-04-15T05:31:04;101559.59;;;9.33;100.00
9784;BME280;4931;44.874;-1.092;2023-04-15T05:33:31;101557.66;;;9.28;100.00
9784;BME280;4931;44.874;-1.092;2023-04-15T05:35:57;101560.75;;;9.37;100.00
9784;BME280;4931;44.874;-1.092;2023-04-15T05:38:22;101563.50;;;9.37;100.00
9784;BME280;4931;44.874;-1.092;2023-04-15T05:40:48;101568.91;;;9.32;100.00
9784;BME280;4931;44.874;-1.092;2023-04-15T05:43:13;101577.66;;;9.51;100.00
9784;BME280;4931;44.874;-1.092;2023-04-15T05:45:39;101586.16;;;9.50;100.00
9784;BME280;4931;44.874;-1.092;2023-04-15T05:48:07;101584.16;;;9.45;100.00
9784;BME280;4931;44.874;-1.092;2023-04-15T05:50:32;101588.81;;;9.44;100.00
9784;BME280;4931;44.874;-1.092;2023-04-15T05:52:58;101593.69;;;9.42;100.00
9784;BME280;4931;44.874;-1.092;2023-04-15T05:55:23;101596.44;;;9.42;100.00
9784;BME280;4931;44.874;-1.092;2023-04-15T05:57:49;101607.97;;;9.44;100.00
9784;BME280;4931;44.874;-1.092;2023-04-15T06:00:14;101610.19;;;9.47;100.00
9784;BME280;4931;44.874;-1.092;2023-04-15T06:02:40;101607.16;;;9.66;100.00
9784;BME280;4931;44.874;-1.092;2023-04-15T06:05:06;101600.69;;;9.72;100.00
9784;BME280;4931;44.874;-1.092;2023-04-15T06:07:36;101609.84;;;9.61;100.00
9784;BME280;4931;44.874;-1.092;2023-04-15T06:10:03;101611.16;;;9.58;100.00
9784;BME280;4931;44.874;-1.092;2023-04-15T06:12:28;101614.84;;;9.64;100.00
9784;BME280;4931;44.874;-1.092;2023-04-15T06:14:54;101620.94;;;9.71;100.00
9784;BME280;4931;44.874;-1.092;2023-04-15T06:17:19;101621.19;;;9.70;100.00
9784;BME280;4931;44.874;-1.092;2023-04-15T06:19:45;101625.84;;;9.91;100.00
9784;BME280;4931;44.874;-1.092;2023-04-15T06:22:10;101625.44;;;10.00;100.00
9784;BME280;4931;44.874;-1.092;2023-04-15T06:24:36;101643.28;;;10.02;100.00
9784;BME280;4931;44.874;-1.092;2023-04-15T06:27:02;101637.59;;;10.53;100.00
9784;BME280;4931;44.874;-1.092;2023-04-15T06:29:27;101647.84;;;10.90;100.00
9784;BME280;4931;44.874;-1.092;2023-04-15T06:31:53;101654.38;;;11.17;100.00
9784;BME280;4931;44.874;-1.092;2023-04-15T06:34:20;101660.47;;;11.24;100.00
9784;BME280;4931;44.874;-1.092;2023-04-15T06:36:46;101659.47;;;11.35;100.00
9784;BME280;4931;44.874;-1.092;2023-04-15T06:39:12;101669.91;;;11.76;100.00
9784;BME280;4931;44.874;-1.092;2023-04-15T06:41:38;101679.13;;;11.97;100.00
9784;BME280;4931;44.874;-1.092;2023-04-15T06:44:03;101687.50;;;12.18;100.00
9784;BME280;4931;44.874;-1.092;2023-04-15T06:46:29;101680.38;;;12.27;100.00
9784;BME280;4931;44.874;-1.092;2023-04-15T06:48:54;101687.78;;;12.21;100.00
9784;BME280;4931;44.874;-1.092;2023-04-15T06:51:21;101692.59;;;12.52;100.00
9784;BME280;4931;44.874;-1.092;2023-04-15T06:53:46;101689.28;;;12.55;100.00
9784;BME280;4931;44.874;-1.092;2023-04-15T06:56:12;101692.09;;;12.75;100.00
9784;BME280;4931;44.874;-1.092;2023-04-15T06:58:37;101699.84;;;13.04;100.00
9784;BME280;4931;44.874;-1.092;2023-04-15T07:01:03;101705.63;;;13.18;100.00
9784;BME280;4931;44.874;-1.092;2023-04-15T07:03:28;101708.13;;;13.09;100.00
9784;BME280;4931;44.874;-1.092;2023-04-15T07:05:54;101720.16;;;12.62;100.00
9784;BME280;4931;44.874;-1.092;2023-04-15T07:08:19;101727.41;;;13.04;100.00
9784;BME280;4931;44.874;-1.092;2023-04-15T07:10:45;101728.34;;;12.47;100.00
9784;BME280;4931;44.874;-1.092;2023-04-15T07:13:11;101730.63;;;12.70;100.00
9784;BME280;4931;44.874;-1.092;2023-04-15T07:15:37;101737.94;;;12.39;100.00
9784;BME280;4931;44.874;-1.092;2023-04-15T07:18:03;101739.84;;;12.38;100.00
9784;BME280;4931;44.874;-1.092;2023-04-15T07:20:28;101742.81;;;13.10;100.00
9784;BME280;4931;44.874;-1.092;2023-04-15T07:22:54;101736.81;;;13.44;100.00
9784;BME280;4931;44.874;-1.092;2023-04-15T07:25:19;101747.56;;;13.51;100.00
9784;BME280;4931;44.874;-1.092;2023-04-15T07:27:45;101740.66;;;13.49;100.00
9784;BME280;4931;44.874;-1.092;2023-04-15T07:30:10;101744.22;;;13.90;100.00
9784;BME280;4931;44.874;-1.092;2023-04-15T07:32:37;101748.94;;;13.49;100.00
9784;BME280;4931;44.874;-1.092;2023-04-15T07:35:02;101745.59;;;13.26;100.00
9784;BME280;4931;44.874;-1.092;2023-04-15T07:37:28;101756.03;;;12.98;100.00
9784;BME280;4931;44.874;-1.092;2023-04-15T07:39:54;101746.28;;;12.59;100.00
9784;BME280;4931;44.874;-1.092;2023-04-15T07:42:20;101755.84;;;12.47;100.00
9784;BME280;4931;44.874;-1.092;2023-04-15T07:44:46;101759.53;;;12.73;100.00
9784;BME280;4931;44.874;-1.092;2023-04-15T07:47:11;101767.59;;;13.10;100.00
9784;BME280;4931;44.874;-1.092;2023-04-15T07:49:37;101765.41;;;13.07;100.00
9784;BME280;4931;44.874;-1.092;2023-04-15T07:52:02;101774.19;;;12.89;100.00
9784;BME280;4931;44.874;-1.092;2023-04-15T07:54:28;101770.88;;;12.97;100.00
9784;BME280;4931;44.874;-1.092;2023-04-15T07:56:53;101777.63;;;13.42;100.00
9784;BME280;4931;44.874;-1.092;2023-04-15T07:59:20;101780.34;;;14.09;100.00
9784;BME280;4931;44.874;-1.092;2023-04-15T08:01:45;101777.47;;;14.45;100.00
9784;BME280;4931;44.874;-1.092;2023-04-15T08:04:11;101792.19;;;14.10;100.00
9784;BME280;4931;44.874;-1.092;2023-04-15T08:06:36;101795.25;;;13.77;100.00
9784;BME280;4931;44.874;-1.092;2023-04-15T08:09:04;101806.50;;;13.29;100.00
9784;BME280;4931;44.874;-1.092;2023-04-15T08:11:30;101804.47;;;12.94;100.00
9784;BME280;4931;44.874;-1.092;2023-04-15T08:13:56;101814.38;;;12.85;100.00
9784;BME280;4931;44.874;-1.092;2023-04-15T08:16:23;101807.38;;;13.45;100.00
9784;BME280;4931;44.874;-1.092;2023-04-15T08:18:50;101805.75;;;14.01;100.00
9784;BME280;4931;44.874;-1.092;2023-04-15T08:21:17;101800.41;;;14.41;100.00
9784;BME280;4931;44.874;-1.092;2023-04-15T08:23:44;101809.34;;;14.93;100.00
9784;BME280;4931;44.874;-1.092;2023-04-15T08:26:10;101813.28;;;14.76;100.00
9784;BME280;4931;44.874;-1.092;2023-04-15T08:28:40;101811.75;;;14.39;100.00
9784;BME280;4931;44.874;-1.092;2023-04-15T08:31:05;101817.59;;;14.98;100.00
9784;BME280;4931;44.874;-1.092;2023-04-15T08:33:31;101815.31;;;14.40;100.00
9784;BME280;4931;44.874;-1.092;2023-04-15T08:35:57;101823.69;;;15.00;100.00
9784;BME280;4931;44.874;-1.092;2023-04-15T08:38:22;101827.13;;;14.61;100.00
9784;BME280;4931;44.874;-1.092;2023-04-15T08:40:48;101836.06;;;14.11;100.00
9784;BME280;4931;44.874;-1.092;2023-04-15T08:43:21;101839.66;;;14.22;100.00
9784;BME280;4931;44.874;-1.092;2023-04-15T08:45:52;101847.56;;;14.60;100.00
9784;BME280;4931;44.874;-1.092;2023-04-15T08:48:18;101847.38;;;14.00;100.00
9784;BME280;4931;44.874;-1.092;2023-04-15T08:50:45;101854.28;;;14.02;100.00
9784;BME280;4931;44.874;-1.092;2023-04-15T08:53:11;101853.75;;;14.00;100.00
9784;BME280;4931;44.874;-1.092;2023-04-15T08:55:42;101867.50;;;13.74;100.00
9784;BME280;4931;44.874;-1.092;2023-04-15T08:58:09;101873.00;;;13.59;100.00
9784;BME280;4931;44.874;-1.092;2023-04-15T09:00:35;101864.75;;;13.74;100.00
9784;BME280;4931;44.874;-1.092;2023-04-15T09:03:05;101865.31;;;14.07;100.00
9784;BME280;4931;44.874;-1.092;2023-04-15T09:05:33;101865.31;;;14.13;100.00
9784;BME280;4931;44.874;-1.092;2023-04-15T09:07:59;101874.13;;;14.30;100.00
9784;BME280;4931;44.874;-1.092;2023-04-15T09:10:25;101870.56;;;13.99;100.00
9784;BME280;4931;44.874;-1.092;2023-04-15T09:12:50;101877.47;;;13.91;100.00
9784;BME280;4931;44.874;-1.092;2023-04-15T09:15:16;101883.50;;;13.83;100.00
9784;BME280;4931;44.874;-1.092;2023-04-15T09:17:45;101895.13;;;14.05;100.00
9784;BME280;4931;44.874;-1.092;2023-04-15T09:20:13;101890.13;;;14.18;100.00
9784;BME280;4931;44.874;-1.092;2023-04-15T09:22:40;101896.44;;;14.54;100.00
9784;BME280;4931;44.874;-1.092;2023-04-15T09:27:51;101905.56;;;13.93;100.00
9784;BME280;4931;44.874;-1.092;2023-04-15T09:30:16;101912.72;;;13.78;100.00
9784;BME280;4931;44.874;-1.092;2023-04-15T09:33:08;101912.72;;;14.61;100.00
9784;BME280;4931;44.874;-1.092;2023-04-15T09:35:35;101907.69;;;14.89;100.00
9784;BME280;4931;44.874;-1.092;2023-04-15T09:38:08;101914.97;;;14.38;100.00
9784;BME280;4931;44.874;-1.092;2023-04-15T09:40:35;101920.47;;;14.64;100.00
9784;BME280;4931;44.874;-1.092;2023-04-15T09:43:03;101922.78;;;15.22;100.00
9784;BME280;4931;44.874;-1.092;2023-04-15T09:45:29;101918.22;;;14.92;100.00
9784;BME280;4931;44.874;-1.092;2023-04-15T09:48:13;101921.59;;;14.48;100.00
9784;BME280;4931;44.874;-1.092;2023-04-15T09:50:42;101924.56;;;14.92;100.00
9784;BME280;4931;44.874;-1.092;2023-04-15T09:53:09;101920.84;;;15.18;100.00
9784;BME280;4931;44.874;-1.092;2023-04-15T09:55:37;101934.22;;;14.95;100.00
9784;BME280;4931;44.874;-1.092;2023-04-15T09:58:08;101940.34;;;14.61;100.00
9784;BME280;4931;44.874;-1.092;2023-04-15T10:00:34;101935.34;;;14.78;100.00
9784;BME280;4931;44.874;-1.092;2023-04-15T10:03:02;101929.66;;;15.30;100.00
9784;BME280;4931;44.874;-1.092;2023-04-15T10:05:30;101939.66;;;15.21;100.00
9784;BME280;4931;44.874;-1.092;2023-04-15T10:07:56;101950.75;;;15.05;100.00
9784;BME280;4931;44.874;-1.092;2023-04-15T10:10:22;101939.41;;;15.67;100.00
9784;BME280;4931;44.874;-1.092;2023-04-15T10:12:48;101941.56;;;15.75;100.00
9784;BME280;4931;44.874;-1.092;2023-04-15T10:15:16;101931.81;;;16.28;100.00
9784;BME280;4931;44.874;-1.092;2023-04-15T10:17:46;101925.50;;;16.52;100.00
9784;BME280;4931;44.874;-1.092;2023-04-15T10:20:16;101940.34;;;16.02;100.00
9784;BME280;4931;44.874;-1.092;2023-04-15T10:22:44;101942.72;;;16.14;100.00
9784;BME280;4931;44.874;-1.092;2023-04-15T10:25:11;101942.66;;;16.54;100.00
9784;BME280;4931;44.874;-1.092;2023-04-15T10:27:39;101932.00;;;16.66;100.00
9784;BME280;4931;44.874;-1.092;2023-04-15T10:30:06;101938.72;;;16.60;100.00
9784;BME280;4931;44.874;-1.092;2023-04-15T10:32:33;101935.22;;;16.79;100.00
9784;BME280;4931;44.874;-1.092;2023-04-15T10:35:00;101936.47;;;16.62;100.00
9784;BME280;4931;44.874;-1.092;2023-04-15T10:37:36;101934.03;;;17.33;100.00
9784;BME280;4931;44.874;-1.092;2023-04-15T10:42:50;101918.25;;;17.09;100.00
9784;BME280;4931;44.874;-1.092;2023-04-15T10:45:17;101937.03;;;16.88;100.00
9784;BME280;4931;44.874;-1.092;2023-04-15T10:47:43;101940.66;;;16.89;100.00
9784;BME280;4931;44.874;-1.092;2023-04-15T10:50:08;101928.53;;;17.09;100.00
9784;BME280;4931;44.874;-1.092;2023-04-15T10:52:34;101941.72;;;17.17;100.00
9784;BME280;4931;44.874;-1.092;2023-04-15T10:57:37;101927.69;;;17.08;100.00
9784;BME280;4931;44.874;-1.092;2023-04-15T11:00:13;101928.75;;;17.13;100.00
9784;BME280;4931;44.874;-1.092;2023-04-15T11:02:55;101923.16;;;16.64;100.00
9784;BME280;4931;44.874;-1.092;2023-04-15T11:08:07;101933.22;;;17.33;100.00
9784;BME280;4931;44.874;-1.092;2023-04-15T11:13:00;101938.94;;;17.99;100.00
9784;BME280;4931;44.874;-1.092;2023-04-15T11:15:34;101936.31;;;18.07;100.00
9784;BME280;4931;44.874;-1.092;2023-04-15T11:20:53;101928.47;;;17.96;100.00
9784;BME280;4931;44.874;-1.092;2023-04-15T11:23:40;101927.03;;;17.60;100.00
9784;BME280;4931;44.874;-1.092;2023-04-15T11:26:11;101933.00;;;17.48;100.00
9784;BME280;4931;44.874;-1.092;2023-04-15T11:28:38;101944.28;;;17.95;100.00
9784;BME280;4931;44.874;-1.092;2023-04-15T11:31:12;101927.63;;;17.95;100.00
9784;BME280;4931;44.874;-1.092;2023-04-15T11:34:05;101941.56;;;17.90;100.00
9784;BME280;4931;44.874;-1.092;2023-04-15T11:36:30;101935.28;;;18.36;100.00
9784;BME280;4931;44.874;-1.092;2023-04-15T11:38:58;101945.53;;;18.83;100.00
9784;BME280;4931;44.874;-1.092;2023-04-15T11:41:24;101956.09;;;18.20;100.00
9784;BME280;4931;44.874;-1.092;2023-04-15T11:43:51;101953.59;;;18.04;100.00
9784;BME280;4931;44.874;-1.092;2023-04-15T11:46:17;101957.66;;;17.93;100.00
9784;BME280;4931;44.874;-1.092;2023-04-15T11:48:44;101948.38;;;17.79;100.00
9784;BME280;4931;44.874;-1.092;2023-04-15T11:51:11;101957.59;;;17.74;100.00
9784;BME280;4931;44.874;-1.092;2023-04-15T11:56:08;101954.09;;;17.87;100.00
9784;BME280;4931;44.874;-1.092;2023-04-15T11:58:35;101956.72;;;17.79;100.00
9784;BME280;4931;44.874;-1.092;2023-04-15T12:01:05;101946.56;;;17.69;100.00
9784;BME280;4931;44.874;-1.092;2023-04-15T12:03:42;101950.28;;;18.02;100.00
9784;BME280;4931;44.874;-1.092;2023-04-15T12:06:22;101955.19;;;17.67;100.00
9784;BME280;4931;44.874;-1.092;2023-04-15T12:08:55;101957.03;;;17.77;100.00
9784;BME280;4931;44.874;-1.092;2023-04-15T12:11:30;101957.06;;;17.53;100.00
9784;BME280;4931;44.874;-1.092;2023-04-15T12:16:27;101973.31;;;17.40;100.00
9784;BME280;4931;44.874;-1.092;2023-04-15T12:18:58;101963.66;;;17.57;100.00
9784;BME280;4931;44.874;-1.092;2023-04-15T12:21:25;101981.91;;;17.63;100.00
9784;BME280;4931;44.874;-1.092;2023-04-15T12:23:53;101978.31;;;17.82;100.00
9784;BME280;4931;44.874;-1.092;2023-04-15T12:26:33;101978.16;;;17.92;100.00
9784;BME280;4931;44.874;-1.092;2023-04-15T12:29:09;101981.84;;;18.25;100.00
9784;BME280;4931;44.874;-1.092;2023-04-15T12:31:36;101984.31;;;18.27;100.00
9784;BME280;4931;44.874;-1.092;2023-04-15T12:34:03;101979.53;;;17.75;100.00
9784;BME280;4931;44.874;-1.092;2023-04-15T12:36:31;101977.19;;;17.83;100.00
9784;BME280;4931;44.874;-1.092;2023-04-15T12:39:03;101979.25;;;17.96;100.00
9784;BME280;4931;44.874;-1.092;2023-04-15T12:41:30;101983.53;;;18.40;100.00
9784;BME280;4931;44.874;-1.092;2023-04-15T12:43:56;101983.53;;;18.40;100.00
9784;BME280;4931;44.874;-1.092;2023-04-15T12:46:21;101977.50;;;18.19;100.00
9784;BME280;4931;44.874;-1.092;2023-04-15T12:48:47;101983.50;;;17.45;100.00
9784;BME280;4931;44.874;-1.092;2023-04-15T12:51:13;101990.69;;;17.27;100.00
9784;BME280;4931;44.874;-1.092;2023-04-15T12:53:39;101995.03;;;17.09;100.00
9784;BME280;4931;44.874;-1.092;2023-04-15T12:56:04;101994.72;;;16.52;100.00
9784;BME280;4931;44.874;-1.092;2023-04-15T12:58:30;101997.31;;;16.72;100.00
9784;BME280;4931;44.874;-1.092;2023-04-15T13:00:56;101988.16;;;16.77;100.00
9784;BME280;4931;44.874;-1.092;2023-04-15T13:03:22;101997.63;;;17.00;100.00
9784;BME280;4931;44.874;-1.092;2023-04-15T13:05:47;102001.16;;;17.54;100.00
9784;BME280;4931;44.874;-1.092;2023-04-15T13:08:13;101997.09;;;17.47;100.00
9784;BME280;4931;44.874;-1.092;2023-04-15T13:10:38;101995.31;;;16.78;100.00
9784;BME280;4931;44.874;-1.092;2023-04-15T13:13:04;101996.47;;;17.06;100.00